createdAt,value
2023-03-16T00:00:41.750Z,0.17
2023-03-16T00:04:00.823Z,0.14
2023-03-16T00:07:11.599Z,0.11
2023-03-16T00:10:31.790Z,0.08
2023-03-16T00:13:42.776Z,0.04
2023-03-16T00:17:01.837Z,0.01
2023-03-16T00:20:15.260Z,0.01
2023-03-16T00:23:26.898Z,0.03
2023-03-16T00:26:54.506Z,0.04
2023-03-16T00:30:09.232Z,0.07
2023-03-16T00:33:12.654Z,0.11
2023-03-16T00:36:25.205Z,0.14
2023-03-16T00:39:45.145Z,0.15
2023-03-16T00:42:36.303Z,0.14
2023-03-16T00:45:55.437Z,0.13
2023-03-16T00:49:08.301Z,0.09
2023-03-16T00:52:19.001Z,0.03
2023-03-16T00:55:46.729Z,-0.03
2023-03-16T00:58:57.551Z,-0.09
2023-03-16T01:02:10.407Z,-0.16
2023-03-16T01:05:22.127Z,-0.25
2023-03-16T01:08:42.471Z,-0.34
2023-03-16T01:12:09.952Z,-0.43
2023-03-16T01:15:29.051Z,-0.51
2023-03-16T01:18:49.246Z,-0.59
2023-03-16T01:22:08.311Z,-0.67
2023-03-16T01:25:10.760Z,-0.74
2023-03-16T01:28:21.444Z,-0.80
2023-03-16T01:31:48.968Z,-0.89
2023-03-16T01:34:59.660Z,-0.95
2023-03-16T01:38:10.469Z,-1.02
2023-03-16T01:41:29.488Z,-1.08
2023-03-16T01:44:48.368Z,-1.11
2023-03-16T01:47:59.104Z,-1.12
2023-03-16T01:51:09.849Z,-1.12
2023-03-16T01:54:21.671Z,-1.10
2023-03-16T01:57:25.456Z,-1.07
2023-03-16T02:00:25.879Z,-1.05
2023-03-16T02:03:39.720Z,-1.03
2023-03-16T02:06:43.099Z,-1.03
2023-03-16T02:09:54.867Z,-1.06
2023-03-16T02:13:05.642Z,-1.10
2023-03-16T02:16:34.239Z,-1.13
2023-03-16T02:19:46.964Z,-1.19
2023-03-16T02:22:58.025Z,-1.26
2023-03-16T02:26:04.745Z,-1.32
2023-03-16T02:28:57.122Z,-1.40
2023-03-16T02:32:16.190Z,-1.48
2023-03-16T02:35:34.772Z,-1.56
2023-03-16T02:38:45.557Z,-1.63
2023-03-16T02:41:58.274Z,-1.69
2023-03-16T02:45:14.848Z,-1.74
2023-03-16T02:48:34.936Z,-1.82
2023-03-16T02:51:54.096Z,-1.90
2023-03-16T02:55:13.142Z,-1.98
2023-03-16T02:58:33.268Z,-2.07
2023-03-16T03:01:43.996Z,-2.11
2023-03-16T03:04:54.775Z,-2.13
2023-03-16T03:08:13.883Z,-2.13
2023-03-16T03:11:33.018Z,-2.11
2023-03-16T03:14:44.642Z,-2.10
2023-03-16T03:18:03.824Z,-2.09
2023-03-16T03:21:14.538Z,-2.06
2023-03-16T03:24:27.325Z,-2.05
2023-03-16T03:27:47.507Z,-2.06
2023-03-16T03:30:59.407Z,-2.07
2023-03-16T03:34:18.549Z,-2.13
2023-03-16T03:37:30.396Z,-2.16
2023-03-16T03:40:42.156Z,-2.23
2023-03-16T03:43:52.885Z,-2.30
2023-03-16T03:47:03.705Z,-2.37
2023-03-16T03:50:23.970Z,-2.43
2023-03-16T03:53:34.776Z,-2.49
2023-03-16T03:56:45.889Z,-2.54
2023-03-16T03:59:56.106Z,-2.58
2023-03-16T04:03:16.338Z,-2.63
2023-03-16T04:06:19.805Z,-2.69
2023-03-16T04:09:47.394Z,-2.74
2023-03-16T04:13:00.167Z,-2.77
2023-03-16T04:16:13.021Z,-2.80
2023-03-16T04:19:23.781Z,-2.81
2023-03-16T04:22:41.471Z,-2.81
2023-03-16T04:26:08.124Z,-2.81
2023-03-16T04:29:26.290Z,-2.79
2023-03-16T04:32:52.599Z,-2.75
2023-03-16T04:36:04.047Z,-2.73
2023-03-16T04:39:06.638Z,-2.71
2023-03-16T04:42:17.430Z,-2.69
2023-03-16T04:45:29.164Z,-2.67
2023-03-16T04:48:39.955Z,-2.63
2023-03-16T04:51:50.713Z,-2.61
2023-03-16T04:55:08.764Z,-2.59
2023-03-16T04:58:14.115Z,-2.57
2023-03-16T05:01:26.035Z,-2.55
2023-03-16T05:04:28.416Z,-2.55
2023-03-16T05:07:40.211Z,-2.55
2023-03-16T05:10:52.006Z,-2.57
2023-03-16T05:14:02.775Z,-2.57
2023-03-16T05:17:15.654Z,-2.56
2023-03-16T05:20:26.460Z,-2.53
2023-03-16T05:23:47.772Z,-2.47
2023-03-16T05:26:51.555Z,-2.38
2023-03-16T05:30:04.290Z,-2.27
2023-03-16T05:33:16.075Z,-2.13
2023-03-16T05:36:43.502Z,-1.98
2023-03-16T05:39:47.235Z,-1.78
2023-03-16T05:42:58.770Z,-1.59
2023-03-16T05:46:11.647Z,-1.40
2023-03-16T05:49:23.391Z,-1.19
2023-03-16T05:52:34.189Z,-0.98
2023-03-16T05:55:45.895Z,-0.75
2023-03-16T05:59:04.995Z,-0.53
2023-03-16T06:02:15.831Z,-0.30
2023-03-16T06:05:26.616Z,-0.06
2023-03-16T06:08:31.980Z,0.18
2023-03-16T06:11:51.132Z,0.41
2023-03-16T06:15:03.147Z,0.65
2023-03-16T06:18:15.097Z,0.89
2023-03-16T06:21:25.874Z,1.13
2023-03-16T06:24:37.646Z,1.35
2023-03-16T06:27:48.398Z,1.57
2023-03-16T06:31:01.211Z,1.78
2023-03-16T06:34:11.941Z,1.97
2023-03-16T06:37:22.765Z,2.16
2023-03-16T06:40:27.351Z,2.35
2023-03-16T06:43:39.340Z,2.54
2023-03-16T06:46:43.804Z,2.71
2023-03-16T06:50:11.318Z,2.86
2023-03-16T06:53:24.022Z,3.04
2023-03-16T06:56:44.771Z,3.18
2023-03-16T06:59:49.697Z,3.35
2023-03-16T07:03:02.758Z,3.49
2023-03-16T07:06:12.405Z,3.64
2023-03-16T07:09:14.834Z,3.78
2023-03-16T07:12:33.893Z,3.92
2023-03-16T07:15:44.979Z,4.06
2023-03-16T07:18:55.714Z,4.19
2023-03-16T07:22:06.907Z,4.32
2023-03-16T07:25:17.621Z,4.44
2023-03-16T07:28:45.121Z,4.60
2023-03-16T07:31:57.008Z,4.77
2023-03-16T07:35:08.837Z,4.85
2023-03-16T07:38:27.930Z,4.96
2023-03-16T07:41:38.692Z,5.05
2023-03-16T07:44:51.690Z,5.14
2023-03-16T07:48:02.694Z,5.21
2023-03-16T07:51:13.459Z,5.31
2023-03-16T07:54:33.655Z,5.41
2023-03-16T07:57:44.372Z,5.56
2023-03-16T08:01:04.616Z,5.68
2023-03-16T08:04:16.369Z,5.77
2023-03-16T08:07:18.875Z,5.88
2023-03-16T08:10:35.864Z,5.95
2023-03-16T08:13:54.086Z,6.05
2023-03-16T08:17:05.848Z,6.14
2023-03-16T08:20:11.292Z,6.23
2023-03-16T08:23:24.050Z,6.27
2023-03-16T08:26:33.661Z,6.32
2023-03-16T08:29:44.421Z,6.35
2023-03-16T08:33:03.692Z,6.42
2023-03-16T08:36:22.835Z,6.49
2023-03-16T08:39:42.033Z,6.58
2023-03-16T08:42:53.850Z,6.59
2023-03-16T08:46:13.009Z,6.63
2023-03-16T08:49:23.749Z,6.69
2023-03-16T08:52:34.510Z,6.78
2023-03-16T08:55:53.199Z,6.82
2023-03-16T08:59:29.766Z,6.78
2023-03-16T09:02:43.179Z,6.85
2023-03-16T09:06:02.825Z,6.98
2023-03-16T09:09:08.222Z,7.17
2023-03-16T09:12:20.097Z,7.21
2023-03-16T09:15:30.839Z,7.16
2023-03-16T09:18:52.236Z,7.18
2023-03-16T09:22:11.601Z,7.28
2023-03-16T09:25:29.939Z,7.51
2023-03-16T09:28:48.386Z,7.58
2023-03-16T09:32:00.729Z,7.75
2023-03-16T09:35:11.472Z,7.96
2023-03-16T09:38:31.489Z,8.18
2023-03-16T09:41:26.896Z,8.39
2023-03-16T09:44:35.467Z,8.51
2023-03-16T09:47:54.813Z,8.58
2023-03-16T09:51:05.655Z,8.62
2023-03-16T09:54:05.272Z,8.70
2023-03-16T09:57:18.955Z,8.77
2023-03-16T10:00:28.006Z,8.81
2023-03-16T10:03:31.630Z,8.88
2023-03-16T10:06:38.581Z,8.97
2023-03-16T10:10:02.688Z,9.09
2023-03-16T10:13:07.262Z,9.16
2023-03-16T10:16:19.652Z,9.16
2023-03-16T10:19:39.705Z,8.95
2023-03-16T10:22:42.027Z,8.86
2023-03-16T10:25:55.758Z,8.86
2023-03-16T10:29:06.498Z,9.02
2023-03-16T10:32:30.484Z,9.23
2023-03-16T10:35:47.077Z,9.40
2023-03-16T10:38:46.739Z,9.49
2023-03-16T10:41:44.390Z,9.57
2023-03-16T10:44:56.910Z,9.64
2023-03-16T10:48:07.671Z,9.71
2023-03-16T10:51:26.837Z,9.80
2023-03-16T10:54:40.542Z,9.79
2023-03-16T10:57:46.462Z,9.51
2023-03-16T11:00:54.436Z,9.25
2023-03-16T11:03:52.874Z,9.02
2023-03-16T11:07:12.102Z,8.90
2023-03-16T11:10:23.091Z,8.77
2023-03-16T11:13:36.185Z,8.69
2023-03-16T11:16:50.974Z,8.64
2023-03-16T11:19:56.359Z,8.65
2023-03-16T11:23:11.090Z,8.72
2023-03-16T11:26:09.429Z,8.79
2023-03-16T11:29:17.836Z,8.79
2023-03-16T11:32:31.629Z,8.74
2023-03-16T11:35:39.962Z,8.88
2023-03-16T11:38:37.537Z,8.83
2023-03-16T11:41:58.380Z,8.69
2023-03-16T11:44:52.747Z,8.68
2023-03-16T11:48:00.120Z,8.81
2023-03-16T11:50:57.469Z,8.96
2023-03-16T11:54:07.009Z,8.97
2023-03-16T11:57:10.356Z,8.90
2023-03-16T12:00:20.869Z,8.84
2023-03-16T12:03:28.325Z,8.85
2023-03-16T12:06:23.185Z,8.82
2023-03-16T12:09:22.063Z,8.83
2023-03-16T12:12:29.792Z,8.80
2023-03-16T12:15:35.472Z,8.74
2023-03-16T12:18:47.257Z,8.69
2023-03-16T12:21:45.619Z,8.57
2023-03-16T12:25:00.378Z,8.47
2023-03-16T12:27:58.709Z,8.32
2023-03-16T12:31:08.567Z,8.26
2023-03-16T12:34:03.225Z,8.20
2023-03-16T12:37:21.447Z,8.19
2023-03-16T12:40:21.952Z,8.14
2023-03-16T12:43:26.350Z,8.04
2023-03-16T12:46:46.855Z,7.94
2023-03-16T12:49:58.469Z,7.85
2023-03-16T12:53:10.177Z,7.74
2023-03-16T12:56:05.505Z,7.63
2023-03-16T12:59:25.157Z,7.56
2023-03-16T13:02:35.669Z,7.58
2023-03-16T13:06:00.507Z,7.50
2023-03-16T13:09:09.854Z,7.45
2023-03-16T13:12:10.623Z,7.44
2023-03-16T13:15:41.188Z,7.49
2023-03-16T13:18:32.577Z,7.61
2023-03-16T13:21:41.376Z,7.78
2023-03-16T13:24:54.233Z,7.95
2023-03-16T13:28:13.254Z,8.03
2023-03-16T13:31:24.001Z,8.00
2023-03-16T13:34:46.050Z,7.92
2023-03-16T13:38:13.713Z,7.84
2023-03-16T13:41:33.408Z,7.79
2023-03-16T13:44:32.174Z,7.70
2023-03-16T13:47:51.149Z,7.61
2023-03-16T13:51:02.892Z,7.49
2023-03-16T13:54:13.628Z,7.34
2023-03-16T13:57:32.784Z,7.25
2023-03-16T14:00:31.517Z,7.16
2023-03-16T14:03:59.204Z,7.11
2023-03-16T14:07:27.083Z,7.13
2023-03-16T14:10:37.860Z,7.13
2023-03-16T14:13:46.393Z,7.20
2023-03-16T14:17:02.245Z,7.32
2023-03-16T14:20:14.563Z,7.47
2023-03-16T14:23:27.311Z,7.58
2023-03-16T14:26:39.293Z,7.72
2023-03-16T14:29:58.823Z,7.86
2023-03-16T14:33:10.638Z,7.98
2023-03-16T14:36:26.002Z,8.05
2023-03-16T14:39:41.565Z,8.14
2023-03-16T14:43:06.337Z,8.18
2023-03-16T14:46:18.156Z,8.18
2023-03-16T14:49:30.865Z,8.17
2023-03-16T14:52:51.433Z,8.12
2023-03-16T14:56:10.549Z,7.97
2023-03-16T14:59:23.252Z,7.82
2023-03-16T15:02:25.675Z,7.72
2023-03-16T15:05:36.600Z,7.61
2023-03-16T15:08:55.614Z,7.52
2023-03-16T15:12:08.324Z,7.40
2023-03-16T15:15:24.078Z,7.28
2023-03-16T15:18:51.703Z,7.19
2023-03-16T15:22:02.456Z,7.11
2023-03-16T15:25:14.059Z,6.98
2023-03-16T15:28:24.928Z,6.88
2023-03-16T15:31:35.650Z,6.79
2023-03-16T15:34:46.412Z,6.72
2023-03-16T15:38:06.408Z,6.70
2023-03-16T15:41:32.206Z,6.69
2023-03-16T15:44:55.239Z,6.67
2023-03-16T15:48:08.555Z,6.65
2023-03-16T15:51:13.419Z,6.62
2023-03-16T15:54:29.183Z,6.58
2023-03-16T15:57:39.982Z,6.57
2023-03-16T16:00:58.467Z,6.55
2023-03-16T16:04:17.663Z,6.52
2023-03-16T16:07:45.338Z,6.47
2023-03-16T16:10:59.393Z,6.39
2023-03-16T16:14:34.278Z,6.31
2023-03-16T16:18:20.940Z,6.22
2023-03-16T16:21:40.817Z,6.15
2023-03-16T16:24:58.313Z,6.09
2023-03-16T16:28:00.909Z,6.03
2023-03-16T16:31:20.003Z,5.98
2023-03-16T16:34:23.770Z,5.92
2023-03-16T16:37:34.644Z,5.86
2023-03-16T16:40:54.778Z,5.80
2023-03-16T16:44:08.544Z,5.74
2023-03-16T16:47:23.181Z,5.69
2023-03-16T16:50:53.414Z,5.61
2023-03-16T16:54:06.291Z,5.51
2023-03-16T16:57:26.404Z,5.41
2023-03-16T17:00:46.177Z,5.31
2023-03-16T17:03:48.959Z,5.20
2023-03-16T17:07:00.776Z,5.10
2023-03-16T17:10:11.492Z,5.01
2023-03-16T17:13:17.943Z,4.91
2023-03-16T17:16:40.125Z,4.80
2023-03-16T17:19:53.136Z,4.69
2023-03-16T17:22:59.808Z,4.57
2023-03-16T17:26:27.762Z,4.46
2023-03-16T17:29:24.111Z,4.33
2023-03-16T17:32:43.284Z,4.21
2023-03-16T17:36:08.339Z,4.09
2023-03-16T17:39:20.152Z,3.98
2023-03-16T17:42:11.530Z,3.87
2023-03-16T17:45:24.278Z,3.77
2023-03-16T17:48:35.947Z,3.66
2023-03-16T17:51:46.685Z,3.52
2023-03-16T17:55:04.318Z,3.40
2023-03-16T17:58:16.584Z,3.25
2023-03-16T18:01:27.380Z,3.09
2023-03-16T18:04:35.961Z,2.95
2023-03-16T18:07:46.688Z,2.79
2023-03-16T18:11:02.190Z,2.63
2023-03-16T18:14:25.525Z,2.49
2023-03-16T18:17:54.677Z,2.36
2023-03-16T18:21:19.499Z,2.21
2023-03-16T18:24:35.236Z,2.05
2023-03-16T18:27:47.003Z,1.93
2023-03-16T18:31:14.696Z,1.80
2023-03-16T18:34:19.166Z,1.65
2023-03-16T18:37:30.912Z,1.52
2023-03-16T18:40:41.612Z,1.37
2023-03-16T18:43:56.665Z,1.24
2023-03-16T18:46:58.634Z,1.11
2023-03-16T18:50:12.129Z,0.99
2023-03-16T18:53:22.874Z,0.88
2023-03-16T18:56:33.621Z,0.78
2023-03-16T18:59:38.019Z,0.68
2023-03-16T19:03:08.309Z,0.58
2023-03-16T19:06:28.391Z,0.47
2023-03-16T19:09:42.120Z,0.37
2023-03-16T19:12:53.851Z,0.27
2023-03-16T19:15:43.237Z,0.21
2023-03-16T19:18:44.849Z,0.15
2023-03-16T19:22:10.220Z,0.09
2023-03-16T19:25:29.546Z,0.00
2023-03-16T19:28:41.879Z,-0.08
2023-03-16T19:31:54.589Z,-0.16
2023-03-16T19:35:14.758Z,-0.22
2023-03-16T19:38:33.828Z,-0.27
2023-03-16T19:41:43.609Z,-0.31
2023-03-16T19:45:00.405Z,-0.36
2023-03-16T19:48:13.177Z,-0.40
2023-03-16T19:51:17.947Z,-0.46
2023-03-16T19:54:45.439Z,-0.51
2023-03-16T19:58:05.982Z,-0.57
2023-03-16T20:01:16.730Z,-0.62
2023-03-16T20:04:28.036Z,-0.68
2023-03-16T20:07:47.123Z,-0.74
2023-03-16T20:11:01.957Z,-0.80
2023-03-16T20:14:29.312Z,-0.90
2023-03-16T20:17:39.813Z,-0.98
2023-03-16T20:20:50.678Z,-1.04
2023-03-16T20:24:01.663Z,-1.10
2023-03-16T20:27:12.497Z,-1.19
2023-03-16T20:30:25.535Z,-1.25
2023-03-16T20:33:41.878Z,-1.31
2023-03-16T20:37:12.554Z,-1.37
2023-03-16T20:40:25.273Z,-1.44
2023-03-16T20:43:37.964Z,-1.50
2023-03-16T20:46:48.792Z,-1.54
2023-03-16T20:49:54.165Z,-1.59
2023-03-16T20:53:05.865Z,-1.63
2023-03-16T20:56:16.618Z,-1.68
2023-03-16T20:59:27.407Z,-1.73
2023-03-16T21:02:32.999Z,-1.75
2023-03-16T21:05:52.422Z,-1.77
2023-03-16T21:08:53.066Z,-1.80
2023-03-16T21:12:14.532Z,-1.82
2023-03-16T21:15:42.082Z,-1.85
2023-03-16T21:18:52.902Z,-1.89
2023-03-16T21:22:03.596Z,-1.93
2023-03-16T21:25:26.929Z,-1.96
2023-03-16T21:28:37.672Z,-1.98
2023-03-16T21:31:48.490Z,-1.99
2023-03-16T21:35:01.180Z,-2.02
2023-03-16T21:38:12.877Z,-2.05
2023-03-16T21:41:40.309Z,-2.08
2023-03-16T21:44:53.034Z,-2.11
2023-03-16T21:48:12.109Z,-2.16
2023-03-16T21:51:29.087Z,-2.21
2023-03-16T21:54:48.136Z,-2.25
2023-03-16T21:57:58.935Z,-2.28
2023-03-16T22:01:11.637Z,-2.30
2023-03-16T22:04:16.184Z,-2.33
2023-03-16T22:07:25.555Z,-2.34
2023-03-16T22:10:47.640Z,-2.38
2023-03-16T22:13:58.391Z,-2.43
2023-03-16T22:17:10.538Z,-2.49
2023-03-16T22:20:22.279Z,-2.53
2023-03-16T22:23:41.439Z,-2.59
2023-03-16T22:26:53.128Z,-2.62
2023-03-16T22:29:59.941Z,-2.68
2023-03-16T22:33:18.994Z,-2.72
2023-03-16T22:36:38.911Z,-2.77
2023-03-16T22:39:51.642Z,-2.83
2023-03-16T22:42:58.034Z,-2.88
2023-03-16T22:46:09.830Z,-2.93
2023-03-16T22:49:29.016Z,-2.98
2023-03-16T22:52:39.728Z,-3.04
2023-03-16T22:55:50.652Z,-3.09
2023-03-16T22:58:48.085Z,-3.12
2023-03-16T23:01:42.549Z,-3.13
2023-03-16T23:04:46.971Z,-3.14
2023-03-16T23:07:57.784Z,-3.15
2023-03-16T23:11:08.465Z,-3.16
2023-03-16T23:14:21.262Z,-3.17
2023-03-16T23:17:37.952Z,-3.18
2023-03-16T23:20:41.665Z,-3.18
2023-03-16T23:24:03.229Z,-3.18
2023-03-16T23:27:23.994Z,-3.18
2023-03-16T23:30:55.072Z,-3.21
2023-03-16T23:34:05.814Z,-3.23
2023-03-16T23:37:16.659Z,-3.23
2023-03-16T23:40:27.664Z,-3.24
2023-03-16T23:43:39.135Z,-3.25
2023-03-16T23:46:49.875Z,-3.25
2023-03-16T23:50:00.306Z,-3.25
2023-03-16T23:53:13.942Z,-3.24
2023-03-16T23:56:24.731Z,-3.23
2023-03-16T23:59:44.780Z,-3.24
